createdAt,value
2023-04-26T00:00:46.550Z,94902.00
2023-04-26T00:01:46.568Z,94900.00
2023-04-26T00:02:46.691Z,94904.00
2023-04-26T00:03:46.950Z,94904.00
2023-04-26T00:04:46.856Z,94902.00
2023-04-26T00:05:46.797Z,94904.00
2023-04-26T00:06:46.738Z,94904.00
2023-04-26T00:07:46.748Z,94904.00
2023-04-26T00:08:46.774Z,94902.00
2023-04-26T00:09:46.816Z,94904.00
2023-04-26T00:10:46.864Z,94900.00
2023-04-26T00:11:46.889Z,94904.00
2023-04-26T00:12:46.938Z,94902.00
2023-04-26T00:13:46.992Z,94904.00
2023-04-26T00:14:47.003Z,94902.00
2023-04-26T00:15:47.033Z,94902.00
2023-04-26T00:16:47.243Z,94900.00
2023-04-26T00:17:47.188Z,94902.00
2023-04-26T00:18:47.155Z,94902.00
2023-04-26T00:19:47.272Z,94900.00
2023-04-26T00:20:47.248Z,94904.00
2023-04-26T00:21:47.280Z,94906.00
2023-04-26T00:22:47.328Z,94906.00
2023-04-26T00:23:47.368Z,94906.00
2023-04-26T00:24:47.416Z,94908.00
2023-04-26T00:25:47.455Z,94910.00
2023-04-26T00:26:47.485Z,94910.00
2023-04-26T00:27:47.513Z,94912.00
2023-04-26T00:28:47.567Z,94910.00
2023-04-26T00:29:47.627Z,94910.00
2023-04-26T00:30:47.687Z,94908.00
2023-04-26T00:31:47.728Z,94912.00
2023-04-26T00:32:47.796Z,94908.00
2023-04-26T00:33:47.768Z,94910.00
2023-04-26T00:34:47.840Z,94908.00
2023-04-26T00:35:47.867Z,94910.00
2023-04-26T00:36:47.896Z,94910.00
2023-04-26T00:37:47.932Z,94910.00
2023-04-26T00:38:47.986Z,94906.00
2023-04-26T00:39:48.022Z,94910.00
2023-04-26T00:40:48.054Z,94910.00
2023-04-26T00:41:48.103Z,94910.00
2023-04-26T00:42:48.101Z,94908.00
2023-04-26T00:43:48.171Z,94906.00
2023-04-26T00:44:48.222Z,94902.00
2023-04-26T00:45:48.335Z,94902.00
2023-04-26T00:46:48.295Z,94904.00
2023-04-26T00:47:48.356Z,94906.00
2023-04-26T00:48:48.362Z,94906.00
2023-04-26T00:49:48.446Z,94902.00
2023-04-26T00:50:48.492Z,94904.00
2023-04-26T00:51:48.514Z,94902.00
2023-04-26T00:52:48.569Z,94900.00
2023-04-26T00:53:48.589Z,94899.00
2023-04-26T00:54:48.623Z,94895.00
2023-04-26T00:55:48.685Z,94895.00
2023-04-26T00:56:48.729Z,94897.00
2023-04-26T00:57:48.739Z,94895.00
2023-04-26T00:58:48.785Z,94897.00
2023-04-26T00:59:48.828Z,94885.00
2023-04-26T01:00:48.872Z,94893.00
2023-04-26T01:01:48.928Z,94893.00
2023-04-26T01:02:49.093Z,94895.00
2023-04-26T01:03:49.143Z,94895.00
2023-04-26T01:04:49.049Z,94895.00
2023-04-26T01:05:49.105Z,94895.00
2023-04-26T01:06:49.126Z,94893.00
2023-04-26T01:07:49.179Z,94885.00
2023-04-26T01:08:49.367Z,94893.00
2023-04-26T01:09:49.281Z,94895.00
2023-04-26T01:10:49.332Z,94893.00
2023-04-26T01:11:49.405Z,94893.00
2023-04-26T01:12:49.413Z,94883.00
2023-04-26T01:13:49.484Z,94883.00
2023-04-26T01:14:49.542Z,94893.00
2023-04-26T01:15:49.598Z,94881.00
2023-04-26T01:16:49.716Z,94881.00
2023-04-26T01:17:49.728Z,94881.00
2023-04-26T01:18:49.815Z,94881.00
2023-04-26T01:19:49.800Z,94883.00
2023-04-26T01:20:49.856Z,94881.00
2023-04-26T01:21:49.921Z,94879.00
2023-04-26T01:22:49.938Z,94877.00
2023-04-26T01:23:50.041Z,94873.00
2023-04-26T01:24:50.098Z,94879.00
2023-04-26T01:25:50.142Z,94875.00
2023-04-26T01:26:50.201Z,94879.00
2023-04-26T01:27:50.275Z,94877.00
2023-04-26T01:28:50.493Z,94875.00
2023-04-26T01:29:50.325Z,94883.00
2023-04-26T01:30:50.447Z,94877.00
2023-04-26T01:31:50.454Z,94881.00
2023-04-26T01:32:50.563Z,94881.00
2023-04-26T01:33:50.592Z,94881.00
2023-04-26T01:34:50.637Z,94883.00
2023-04-26T01:35:50.706Z,94881.00
2023-04-26T01:36:50.751Z,94885.00
2023-04-26T01:37:50.794Z,94879.00
2023-04-26T01:38:50.999Z,94893.00
2023-04-26T01:39:50.912Z,94885.00
2023-04-26T01:40:51.008Z,94893.00
2023-04-26T01:41:51.020Z,94885.00
2023-04-26T01:42:51.088Z,94893.00
2023-04-26T01:43:51.135Z,94885.00
2023-04-26T01:44:51.256Z,94885.00
2023-04-26T01:45:51.296Z,94893.00
2023-04-26T01:46:51.386Z,94895.00
2023-04-26T01:47:51.405Z,94893.00
2023-04-26T01:48:51.592Z,94897.00
2023-04-26T01:49:51.526Z,94893.00
2023-04-26T01:50:51.543Z,94893.00
2023-04-26T01:51:51.620Z,94893.00
2023-04-26T01:52:51.693Z,94895.00
2023-04-26T01:53:51.740Z,94895.00
2023-04-26T01:54:51.822Z,94900.00
2023-04-26T01:55:51.860Z,94900.00
2023-04-26T01:56:51.916Z,94899.00
2023-04-26T01:57:51.966Z,94900.00
2023-04-26T01:58:52.243Z,94902.00
2023-04-26T01:59:52.116Z,94900.00
2023-04-26T02:00:52.182Z,94899.00
2023-04-26T02:01:52.281Z,94900.00
2023-04-26T02:02:52.346Z,94904.00
2023-04-26T02:03:52.333Z,94899.00
2023-04-26T02:04:52.508Z,94900.00
2023-04-26T02:05:52.490Z,94900.00
2023-04-26T02:06:52.510Z,94900.00
2023-04-26T02:07:52.588Z,94906.00
2023-04-26T02:08:52.881Z,94906.00
2023-04-26T02:09:52.703Z,94906.00
2023-04-26T02:10:52.771Z,94906.00
2023-04-26T02:11:52.799Z,94906.00
2023-04-26T02:12:52.877Z,94904.00
2023-04-26T02:13:52.961Z,94908.00
2023-04-26T02:14:53.013Z,94906.00
2023-04-26T02:15:53.119Z,94908.00
2023-04-26T02:16:53.127Z,94908.00
2023-04-26T02:17:53.196Z,94906.00
2023-04-26T02:18:53.794Z,94906.00
2023-04-26T02:19:53.298Z,94902.00
2023-04-26T02:20:53.381Z,94904.00
2023-04-26T02:21:53.434Z,94904.00
2023-04-26T02:22:53.486Z,94904.00
2023-04-26T02:23:53.541Z,94902.00
2023-04-26T02:24:53.601Z,94902.00
2023-04-26T02:25:53.687Z,94902.00
2023-04-26T02:26:53.732Z,94899.00
2023-04-26T02:27:53.753Z,94900.00
2023-04-26T02:28:53.991Z,94900.00
2023-04-26T02:29:53.991Z,94902.00
2023-04-26T02:30:53.978Z,94899.00
2023-04-26T02:31:54.132Z,94897.00
2023-04-26T02:32:54.128Z,94895.00
2023-04-26T02:33:54.131Z,94897.00
2023-04-26T02:34:54.207Z,94897.00
2023-04-26T02:35:54.264Z,94895.00
2023-04-26T02:36:54.339Z,94895.00
2023-04-26T02:37:54.377Z,94893.00
2023-04-26T02:38:54.701Z,94900.00
2023-04-26T02:39:54.522Z,94900.00
2023-04-26T02:40:54.579Z,94900.00
2023-04-26T02:41:54.623Z,94897.00
2023-04-26T02:42:54.689Z,94895.00
2023-04-26T02:43:54.768Z,94895.00
2023-04-26T02:44:54.857Z,94897.00
2023-04-26T02:45:54.916Z,94899.00
2023-04-26T02:46:54.997Z,94899.00
2023-04-26T02:47:55.044Z,94899.00
2023-04-26T02:48:55.205Z,94900.00
2023-04-26T02:49:55.155Z,94900.00
2023-04-26T02:50:55.227Z,94897.00
2023-04-26T02:51:55.274Z,94895.00
2023-04-26T02:52:55.325Z,94897.00
2023-04-26T02:53:55.370Z,94895.00
2023-04-26T02:54:55.430Z,94883.00
2023-04-26T02:55:55.512Z,94885.00
2023-04-26T02:56:55.543Z,94893.00
2023-04-26T02:57:55.610Z,94883.00
2023-04-26T02:58:55.664Z,94885.00
2023-04-26T02:59:55.747Z,94885.00
2023-04-26T03:00:55.798Z,94885.00
2023-04-26T03:01:55.889Z,94883.00
2023-04-26T03:02:56.099Z,94883.00
2023-04-26T03:03:56.100Z,94885.00
2023-04-26T03:04:56.030Z,94879.00
2023-04-26T03:05:56.082Z,94883.00
2023-04-26T03:06:56.126Z,94881.00
2023-04-26T03:07:56.213Z,94881.00
2023-04-26T03:08:56.273Z,94879.00
2023-04-26T03:09:56.347Z,94883.00
2023-04-26T03:10:56.382Z,94881.00
2023-04-26T03:11:56.482Z,94883.00
2023-04-26T03:12:56.500Z,94883.00
2023-04-26T03:13:56.569Z,94883.00
2023-04-26T03:14:56.691Z,94883.00
2023-04-26T03:15:56.662Z,94883.00
2023-04-26T03:16:56.856Z,94879.00
2023-04-26T03:17:56.857Z,94883.00
2023-04-26T03:18:56.884Z,94879.00
2023-04-26T03:19:56.958Z,94879.00
2023-04-26T03:20:56.994Z,94879.00
2023-04-26T03:21:57.036Z,94881.00
2023-04-26T03:22:57.119Z,94881.00
2023-04-26T03:23:57.147Z,94883.00
2023-04-26T03:24:57.205Z,94883.00
2023-04-26T03:25:57.247Z,94881.00
2023-04-26T03:26:57.261Z,94881.00
2023-04-26T03:27:57.358Z,94883.00
2023-04-26T03:28:57.333Z,94883.00
2023-04-26T03:29:57.398Z,94885.00
2023-04-26T03:30:57.399Z,94885.00
2023-04-26T03:31:57.536Z,94893.00
2023-04-26T03:32:57.499Z,94893.00
2023-04-26T03:33:57.462Z,94893.00
2023-04-26T03:34:57.532Z,94895.00
2023-04-26T03:35:57.506Z,94895.00
2023-04-26T03:36:57.551Z,94897.00
2023-04-26T03:37:58.694Z,94900.00
2023-04-26T03:38:57.606Z,94895.00
2023-04-26T03:39:57.607Z,94893.00
2023-04-26T03:40:57.591Z,94893.00
2023-04-26T03:41:57.635Z,94895.00
2023-04-26T03:42:57.664Z,94895.00
2023-04-26T03:43:57.658Z,94895.00
2023-04-26T03:44:57.649Z,94893.00
2023-04-26T03:45:57.746Z,94885.00
2023-04-26T03:46:57.745Z,94897.00
2023-04-26T03:47:57.808Z,94897.00
2023-04-26T03:48:57.835Z,94895.00
2023-04-26T03:49:57.864Z,94897.00
2023-04-26T03:50:57.887Z,94899.00
2023-04-26T03:51:57.956Z,94902.00
2023-04-26T03:52:57.999Z,94902.00
2023-04-26T03:53:58.036Z,94900.00
2023-04-26T03:54:58.054Z,94899.00
2023-04-26T03:55:58.091Z,94895.00
2023-04-26T03:56:58.099Z,94897.00
2023-04-26T03:57:58.676Z,94897.00
2023-04-26T03:58:58.163Z,94895.00
2023-04-26T03:59:58.227Z,94897.00
2023-04-26T04:00:58.240Z,94900.00
2023-04-26T04:01:58.368Z,94904.00
2023-04-26T04:02:58.411Z,94906.00
2023-04-26T04:03:58.663Z,94904.00
2023-04-26T04:04:58.538Z,94904.00
2023-04-26T04:05:58.457Z,94908.00
2023-04-26T04:06:58.462Z,94908.00
2023-04-26T04:07:58.462Z,94910.00
2023-04-26T04:08:58.508Z,94910.00
2023-04-26T04:09:58.498Z,94910.00
2023-04-26T04:10:58.512Z,94912.00
2023-04-26T04:11:58.524Z,94914.00
2023-04-26T04:12:58.521Z,94912.00
2023-04-26T04:13:58.512Z,94912.00
2023-04-26T04:14:58.494Z,94912.00
2023-04-26T04:15:58.542Z,94912.00
2023-04-26T04:16:58.493Z,94912.00
2023-04-26T04:17:58.556Z,94912.00
2023-04-26T04:18:58.503Z,94916.00
2023-04-26T04:19:58.546Z,94916.00
2023-04-26T04:20:58.469Z,94918.00
2023-04-26T04:21:58.480Z,94920.00
2023-04-26T04:22:58.496Z,94918.00
2023-04-26T04:23:58.503Z,94920.00
2023-04-26T04:24:58.508Z,94918.00
2023-04-26T04:25:58.447Z,94922.00
2023-04-26T04:26:58.481Z,94920.00
2023-04-26T04:27:58.442Z,94922.00
2023-04-26T04:28:58.480Z,94924.00
2023-04-26T04:29:58.466Z,94924.00
2023-04-26T04:30:58.502Z,94924.00
2023-04-26T04:31:58.456Z,94924.00
2023-04-26T04:32:58.468Z,94924.00
2023-04-26T04:33:58.466Z,94924.00
2023-04-26T04:34:58.463Z,94928.00
2023-04-26T04:35:58.459Z,94924.00
2023-04-26T04:36:58.457Z,94926.00
2023-04-26T04:37:58.458Z,94926.00
2023-04-26T04:38:58.441Z,94924.00
2023-04-26T04:39:58.454Z,94922.00
2023-04-26T04:40:58.445Z,94926.00
2023-04-26T04:41:58.472Z,94926.00
2023-04-26T04:42:58.410Z,94930.00
2023-04-26T04:43:58.440Z,94932.00
2023-04-26T04:44:58.439Z,94932.00
2023-04-26T04:45:58.450Z,94932.00
2023-04-26T04:46:58.469Z,94932.00
2023-04-26T04:47:58.483Z,94930.00
2023-04-26T04:48:58.442Z,94932.00
2023-04-26T04:49:58.571Z,94934.00
2023-04-26T04:50:58.532Z,94934.00
2023-04-26T04:51:58.625Z,94938.00
2023-04-26T04:52:58.656Z,94942.00
2023-04-26T04:53:58.739Z,94942.00
2023-04-26T04:54:58.808Z,94944.00
2023-04-26T04:55:58.888Z,94946.00
2023-04-26T04:56:58.918Z,94948.00
2023-04-26T04:57:58.986Z,94948.00
2023-04-26T04:58:59.079Z,94950.00
2023-04-26T04:59:59.116Z,94950.00
2023-04-26T05:00:59.163Z,94952.00
2023-04-26T05:01:59.283Z,94954.00
2023-04-26T05:02:59.324Z,94950.00
2023-04-26T05:03:59.573Z,94954.00
2023-04-26T05:04:59.462Z,94955.00
2023-04-26T05:05:59.507Z,94955.00
2023-04-26T05:06:59.527Z,94955.00
2023-04-26T05:07:59.626Z,94955.00
2023-04-26T05:08:59.685Z,94955.00
2023-04-26T05:09:59.799Z,94957.00
2023-04-26T05:10:59.785Z,94957.00
2023-04-26T05:11:59.858Z,94959.00
2023-04-26T05:12:59.920Z,94959.00
2023-04-26T05:13:59.978Z,94957.00
2023-04-26T05:15:00.088Z,94959.00
2023-04-26T05:16:00.199Z,94961.00
2023-04-26T05:17:00.176Z,94963.00
2023-04-26T05:18:00.268Z,94961.00
2023-04-26T05:19:00.289Z,94961.00
2023-04-26T05:20:00.336Z,94961.00
2023-04-26T05:21:00.399Z,94961.00
2023-04-26T05:22:00.447Z,94959.00
2023-04-26T05:23:00.510Z,94959.00
2023-04-26T05:24:00.563Z,94963.00
2023-04-26T05:25:00.665Z,94963.00
2023-04-26T05:26:00.716Z,94965.00
2023-04-26T05:27:00.809Z,94965.00
2023-04-26T05:28:00.788Z,94965.00
2023-04-26T05:29:00.879Z,94967.00
2023-04-26T05:30:00.946Z,94967.00
2023-04-26T05:31:01.000Z,94965.00
2023-04-26T05:32:01.052Z,94967.00
2023-04-26T05:33:01.197Z,94969.00
2023-04-26T05:34:01.156Z,94969.00
2023-04-26T05:35:01.204Z,94971.00
2023-04-26T05:36:01.284Z,94971.00
2023-04-26T05:37:01.324Z,94971.00
2023-04-26T05:38:01.381Z,94971.00
2023-04-26T05:39:01.431Z,94979.00
2023-04-26T05:40:01.699Z,94973.00
2023-04-26T05:41:01.518Z,94975.00
2023-04-26T05:42:01.527Z,94977.00
2023-04-26T05:43:01.553Z,94975.00
2023-04-26T05:44:01.562Z,94975.00
2023-04-26T05:45:01.696Z,94979.00
2023-04-26T05:46:01.656Z,94979.00
2023-04-26T05:47:01.639Z,94979.00
2023-04-26T05:48:01.650Z,94977.00
2023-04-26T05:49:01.645Z,94975.00
2023-04-26T05:50:01.746Z,94975.00
2023-04-26T05:51:01.646Z,94981.00
2023-04-26T05:52:01.696Z,94977.00
2023-04-26T05:53:01.695Z,94977.00
2023-04-26T05:54:01.794Z,94983.00
2023-04-26T05:55:01.674Z,94981.00
2023-04-26T05:56:01.666Z,94977.00
2023-04-26T05:57:01.728Z,94981.00
2023-04-26T05:58:01.727Z,94981.00
2023-04-26T05:59:01.762Z,94981.00
2023-04-26T06:00:01.724Z,94983.00
2023-04-26T06:01:01.742Z,94985.00
2023-04-26T06:02:01.792Z,94985.00
2023-04-26T06:03:01.973Z,94987.00
2023-04-26T06:04:02.386Z,94989.00
2023-04-26T06:05:02.125Z,94991.00
2023-04-26T06:06:02.042Z,94991.00
2023-04-26T06:07:01.991Z,94989.00
2023-04-26T06:08:02.075Z,94991.00
2023-04-26T06:09:02.099Z,94991.00
2023-04-26T06:10:02.193Z,94991.00
2023-04-26T06:11:02.181Z,94991.00
2023-04-26T06:12:02.271Z,94989.00
2023-04-26T06:13:02.249Z,94991.00
2023-04-26T06:14:02.283Z,94995.00
2023-04-26T06:15:02.353Z,94993.00
2023-04-26T06:16:02.352Z,94993.00
2023-04-26T06:17:02.374Z,94993.00
2023-04-26T06:18:02.414Z,94995.00
2023-04-26T06:19:02.423Z,94997.00
2023-04-26T06:20:02.462Z,94993.00
2023-04-26T06:21:02.418Z,94995.00
2023-04-26T06:22:02.450Z,94995.00
2023-04-26T06:23:02.483Z,94995.00
2023-04-26T06:24:02.473Z,94993.00
2023-04-26T06:25:02.477Z,94995.00
2023-04-26T06:26:02.494Z,94995.00
2023-04-26T06:27:02.464Z,94995.00
2023-04-26T06:28:02.601Z,94991.00
2023-04-26T06:29:02.488Z,94991.00
2023-04-26T06:30:02.558Z,94995.00
2023-04-26T06:31:02.521Z,94993.00
2023-04-26T06:32:02.499Z,94993.00
2023-04-26T06:33:02.509Z,94997.00
2023-04-26T06:34:02.472Z,95001.00
2023-04-26T06:35:02.476Z,94999.00
2023-04-26T06:36:02.656Z,94997.00
2023-04-26T06:37:02.499Z,94999.00
2023-04-26T06:38:02.492Z,94999.00
2023-04-26T06:39:02.503Z,94999.00
2023-04-26T06:40:02.536Z,95001.00
2023-04-26T06:41:02.483Z,94999.00
2023-04-26T06:42:02.518Z,95001.00
2023-04-26T06:43:02.541Z,94999.00
2023-04-26T06:44:02.565Z,95004.00
2023-04-26T06:45:02.594Z,95002.00
2023-04-26T06:46:02.764Z,95002.00
2023-04-26T06:47:02.635Z,95002.00
2023-04-26T06:48:02.741Z,95004.00
2023-04-26T06:49:02.726Z,95006.00
2023-04-26T06:50:03.228Z,95001.00
2023-04-26T06:51:02.767Z,95002.00
2023-04-26T06:52:02.806Z,95002.00
2023-04-26T06:53:02.791Z,95002.00
2023-04-26T06:54:02.773Z,95001.00
2023-04-26T06:55:02.787Z,94997.00
2023-04-26T06:56:02.795Z,95001.00
2023-04-26T06:57:02.768Z,95002.00
2023-04-26T06:58:02.864Z,95004.00
2023-04-26T06:59:02.818Z,95002.00
2023-04-26T07:00:02.917Z,95004.00
2023-04-26T07:01:02.980Z,95002.00
2023-04-26T07:02:03.172Z,95002.00
2023-04-26T07:03:03.140Z,95001.00
2023-04-26T07:04:03.368Z,95001.00
2023-04-26T07:05:03.393Z,94997.00
2023-04-26T07:06:03.367Z,95001.00
2023-04-26T07:07:03.220Z,94997.00
2023-04-26T07:08:03.225Z,94995.00
2023-04-26T07:09:03.239Z,94993.00
2023-04-26T07:10:03.704Z,94993.00
2023-04-26T07:11:03.201Z,94993.00
2023-04-26T07:12:03.211Z,94987.00
2023-04-26T07:13:03.212Z,94989.00
2023-04-26T07:14:03.221Z,94993.00
2023-04-26T07:15:03.190Z,94995.00
2023-04-26T07:16:03.221Z,94997.00
2023-04-26T07:17:03.208Z,94995.00
2023-04-26T07:18:03.248Z,94997.00
2023-04-26T07:19:03.274Z,94991.00
2023-04-26T07:20:03.283Z,94995.00
2023-04-26T07:21:03.336Z,94991.00
2023-04-26T07:22:03.309Z,94995.00
2023-04-26T07:23:03.369Z,94993.00
2023-04-26T07:24:03.382Z,94991.00
2023-04-26T07:25:03.398Z,94991.00
2023-04-26T07:26:03.403Z,94987.00
2023-04-26T07:27:03.411Z,94991.00
2023-04-26T07:28:03.426Z,94989.00
2023-04-26T07:29:03.412Z,94991.00
2023-04-26T07:30:03.651Z,94993.00
2023-04-26T07:31:03.459Z,94989.00
2023-04-26T07:32:03.479Z,94995.00
2023-04-26T07:33:03.558Z,94987.00
2023-04-26T07:34:03.469Z,94987.00
2023-04-26T07:35:03.473Z,94987.00
2023-04-26T07:36:03.431Z,94987.00
2023-04-26T07:37:03.449Z,94989.00
2023-04-26T07:38:03.469Z,94987.00
2023-04-26T07:39:03.465Z,94987.00
2023-04-26T07:40:03.448Z,94987.00
2023-04-26T07:41:03.476Z,94985.00
2023-04-26T07:42:03.452Z,94985.00
2023-04-26T07:43:03.457Z,94981.00
2023-04-26T07:44:03.477Z,94981.00
2023-04-26T07:45:03.490Z,94975.00
2023-04-26T07:46:03.639Z,94981.00
2023-04-26T07:47:03.472Z,94981.00
2023-04-26T07:48:03.544Z,94977.00
2023-04-26T07:49:03.466Z,94981.00
2023-04-26T07:50:03.519Z,94979.00
2023-04-26T07:51:03.504Z,94985.00
2023-04-26T07:52:03.516Z,94987.00
2023-04-26T07:53:03.581Z,94989.00
2023-04-26T07:54:03.512Z,94983.00
2023-04-26T07:55:03.564Z,94981.00
2023-04-26T07:56:03.583Z,94985.00
2023-04-26T07:57:03.614Z,94985.00
2023-04-26T07:58:03.628Z,94987.00
2023-04-26T07:59:03.645Z,94987.00
2023-04-26T08:00:03.654Z,94985.00
2023-04-26T08:01:03.760Z,94987.00
2023-04-26T08:02:03.817Z,94987.00
2023-04-26T08:03:03.947Z,94985.00
2023-04-26T08:04:03.966Z,94985.00
2023-04-26T08:05:04.036Z,94987.00
2023-04-26T08:06:04.121Z,94987.00
2023-04-26T08:07:03.895Z,94987.00
2023-04-26T08:08:03.882Z,94991.00
2023-04-26T08:09:03.929Z,94993.00
2023-04-26T08:10:04.271Z,94991.00
2023-04-26T08:11:04.027Z,94991.00
2023-04-26T08:12:04.099Z,94989.00
2023-04-26T08:13:04.058Z,94989.00
2023-04-26T08:14:04.097Z,94989.00
2023-04-26T08:15:04.099Z,94987.00
2023-04-26T08:16:04.132Z,94985.00
2023-04-26T08:17:04.202Z,94981.00
2023-04-26T08:18:04.270Z,94973.00
2023-04-26T08:19:04.219Z,94973.00
2023-04-26T08:20:04.277Z,94973.00
2023-04-26T08:21:04.290Z,94971.00
2023-04-26T08:22:04.329Z,94971.00
2023-04-26T08:23:04.353Z,94971.00
2023-04-26T08:24:04.398Z,94971.00
2023-04-26T08:25:04.415Z,94969.00
2023-04-26T08:26:04.443Z,94973.00
2023-04-26T08:27:04.487Z,94969.00
2023-04-26T08:28:04.560Z,94967.00
2023-04-26T08:29:04.546Z,94965.00
2023-04-26T08:30:04.582Z,94965.00
2023-04-26T08:31:04.635Z,94963.00
2023-04-26T08:32:04.647Z,94961.00
2023-04-26T08:33:04.682Z,94961.00
2023-04-26T08:34:04.702Z,94963.00
2023-04-26T08:35:04.770Z,94963.00
2023-04-26T08:36:04.741Z,94963.00
2023-04-26T08:37:04.844Z,94961.00
2023-04-26T08:38:04.866Z,94961.00
2023-04-26T08:39:04.900Z,94961.00
2023-04-26T08:40:05.284Z,94957.00
2023-04-26T08:41:04.932Z,94957.00
2023-04-26T08:42:04.958Z,94957.00
2023-04-26T08:43:05.003Z,94959.00
2023-04-26T08:44:05.038Z,94955.00
2023-04-26T08:45:05.081Z,94955.00
2023-04-26T08:46:05.186Z,94954.00
2023-04-26T08:47:05.183Z,94957.00
2023-04-26T08:48:05.174Z,94954.00
2023-04-26T08:49:05.192Z,94955.00
2023-04-26T08:50:05.247Z,94955.00
2023-04-26T08:51:05.750Z,94952.00
2023-04-26T08:52:05.269Z,94950.00
2023-04-26T08:53:05.317Z,94954.00
2023-04-26T08:54:05.372Z,94952.00
2023-04-26T08:55:05.387Z,94952.00
2023-04-26T08:56:05.753Z,94946.00
2023-04-26T08:57:05.471Z,94944.00
2023-04-26T08:58:05.496Z,94948.00
2023-04-26T08:59:05.530Z,94944.00
2023-04-26T09:00:05.664Z,94946.00
2023-04-26T09:01:05.581Z,94944.00
2023-04-26T09:02:05.690Z,94940.00
2023-04-26T09:03:05.756Z,94940.00
2023-04-26T09:04:05.817Z,94944.00
2023-04-26T09:05:05.797Z,94942.00
2023-04-26T09:06:05.874Z,94938.00
2023-04-26T09:07:05.757Z,94940.00
2023-04-26T09:08:05.801Z,94938.00
2023-04-26T09:09:05.857Z,94934.00
2023-04-26T09:10:05.862Z,94934.00
2023-04-26T09:11:05.906Z,94938.00
2023-04-26T09:12:05.931Z,94934.00
2023-04-26T09:13:05.960Z,94934.00
2023-04-26T09:14:05.968Z,94934.00
2023-04-26T09:15:06.013Z,94934.00
2023-04-26T09:16:06.084Z,94936.00
2023-04-26T09:17:06.048Z,94932.00
2023-04-26T09:18:06.141Z,94928.00
2023-04-26T09:19:06.132Z,94926.00
2023-04-26T09:20:07.986Z,94924.00
2023-04-26T09:21:06.179Z,94924.00
2023-04-26T09:22:06.258Z,94920.00
2023-04-26T09:23:06.211Z,94918.00
2023-04-26T09:24:06.284Z,94918.00
2023-04-26T09:25:06.250Z,94918.00
2023-04-26T09:26:06.271Z,94914.00
2023-04-26T09:27:06.297Z,94914.00
2023-04-26T09:28:06.372Z,94910.00
2023-04-26T09:29:06.362Z,94914.00
2023-04-26T09:30:06.358Z,94908.00
2023-04-26T09:31:06.426Z,94910.00
2023-04-26T09:32:06.414Z,94908.00
2023-04-26T09:33:06.532Z,94902.00
2023-04-26T09:34:06.460Z,94908.00
2023-04-26T09:35:06.514Z,94904.00
2023-04-26T09:36:06.535Z,94906.00
2023-04-26T09:37:06.548Z,94908.00
2023-04-26T09:38:11.738Z,94906.00
2023-04-26T09:39:07.560Z,94906.00
2023-04-26T09:40:06.581Z,94904.00
2023-04-26T09:41:06.790Z,94904.00
2023-04-26T09:42:06.540Z,94900.00
2023-04-26T09:43:06.544Z,94900.00
2023-04-26T09:44:06.570Z,94899.00
2023-04-26T09:45:06.521Z,94900.00
2023-04-26T09:46:06.781Z,94900.00
2023-04-26T09:47:06.592Z,94900.00
2023-04-26T09:48:06.609Z,94902.00
2023-04-26T09:49:06.510Z,94900.00
2023-04-26T09:50:06.494Z,94899.00
2023-04-26T09:51:06.442Z,94895.00
2023-04-26T09:52:06.433Z,94895.00
2023-04-26T09:53:06.454Z,94883.00
2023-04-26T09:54:06.480Z,94883.00
2023-04-26T09:55:06.446Z,94883.00
2023-04-26T09:56:06.441Z,94881.00
2023-04-26T09:57:06.414Z,94883.00
2023-04-26T09:58:06.415Z,94881.00
2023-04-26T09:59:06.431Z,94881.00
2023-04-26T10:00:06.419Z,94877.00
2023-04-26T10:01:06.430Z,94879.00
2023-04-26T10:02:06.402Z,94879.00
2023-04-26T10:03:06.460Z,94877.00
2023-04-26T10:04:06.451Z,94877.00
2023-04-26T10:05:06.358Z,94875.00
2023-04-26T10:06:06.368Z,94877.00
2023-04-26T10:07:06.345Z,94879.00
2023-04-26T10:08:06.344Z,94875.00
2023-04-26T10:09:06.338Z,94871.00
2023-04-26T10:10:06.328Z,94867.00
2023-04-26T10:11:06.346Z,94869.00
2023-04-26T10:12:06.334Z,94867.00
2023-04-26T10:13:06.302Z,94863.00
2023-04-26T10:14:06.301Z,94865.00
2023-04-26T10:15:06.331Z,94863.00
2023-04-26T10:16:06.332Z,94867.00
2023-04-26T10:17:06.319Z,94865.00
2023-04-26T10:18:06.376Z,94867.00
2023-04-26T10:19:06.295Z,94863.00
2023-04-26T10:20:06.258Z,94863.00
2023-04-26T10:21:06.295Z,94865.00
2023-04-26T10:22:06.240Z,94865.00
2023-04-26T10:23:06.279Z,94855.00
2023-04-26T10:24:06.232Z,94855.00
2023-04-26T10:25:06.261Z,94855.00
2023-04-26T10:26:06.265Z,94850.00
2023-04-26T10:27:06.230Z,94850.00
2023-04-26T10:28:06.238Z,94846.00
2023-04-26T10:29:06.474Z,94848.00
2023-04-26T10:30:06.211Z,94850.00
2023-04-26T10:31:06.261Z,94848.00
2023-04-26T10:32:06.342Z,94848.00
2023-04-26T10:33:06.329Z,94848.00
2023-04-26T10:34:06.277Z,94850.00
2023-04-26T10:35:06.283Z,94846.00
2023-04-26T10:36:06.320Z,94842.00
2023-04-26T10:37:06.299Z,94842.00
2023-04-26T10:38:06.298Z,94844.00
2023-04-26T10:39:06.314Z,94840.00
2023-04-26T10:40:06.296Z,94844.00
2023-04-26T10:41:06.359Z,94840.00
2023-04-26T10:42:06.450Z,94836.00
2023-04-26T10:43:06.341Z,94834.00
2023-04-26T10:44:06.386Z,94834.00
2023-04-26T10:45:06.366Z,94832.00
2023-04-26T10:46:06.395Z,94832.00
2023-04-26T10:47:06.344Z,94828.00
2023-04-26T10:48:06.400Z,94828.00
2023-04-26T10:49:06.365Z,94822.00
2023-04-26T10:50:06.499Z,94822.00
2023-04-26T10:51:06.324Z,94818.00
2023-04-26T10:52:06.356Z,94816.00
2023-04-26T10:53:06.328Z,94814.00
2023-04-26T10:54:06.340Z,94814.00
2023-04-26T10:55:06.398Z,94810.00
2023-04-26T10:56:06.332Z,94810.00
2023-04-26T10:57:06.376Z,94808.00
2023-04-26T10:58:06.354Z,94808.00
2023-04-26T10:59:13.619Z,94808.00
2023-04-26T11:00:07.326Z,94807.00
2023-04-26T11:01:06.412Z,94807.00
2023-04-26T11:02:06.327Z,94805.00
2023-04-26T11:03:06.464Z,94808.00
2023-04-26T11:04:06.375Z,94808.00
2023-04-26T11:05:06.346Z,94807.00
2023-04-26T11:06:06.266Z,94810.00
2023-04-26T11:07:06.239Z,94805.00
2023-04-26T11:08:06.269Z,94803.00
2023-04-26T11:09:06.254Z,94801.00
2023-04-26T11:10:06.263Z,94797.00
2023-04-26T11:11:06.282Z,94795.00
2023-04-26T11:12:06.265Z,94797.00
2023-04-26T11:13:06.221Z,94793.00
2023-04-26T11:14:06.234Z,94793.00
2023-04-26T11:15:06.222Z,94789.00
2023-04-26T11:16:06.334Z,94785.00
2023-04-26T11:17:06.215Z,94781.00
2023-04-26T11:18:06.290Z,94783.00
2023-04-26T11:19:06.186Z,94783.00
2023-04-26T11:20:06.201Z,94781.00
2023-04-26T11:21:06.153Z,94779.00
2023-04-26T11:22:06.163Z,94785.00
2023-04-26T11:23:06.142Z,94781.00
2023-04-26T11:24:06.162Z,94775.00
2023-04-26T11:25:06.140Z,94775.00
2023-04-26T11:26:06.290Z,94771.00
2023-04-26T11:27:06.148Z,94773.00
2023-04-26T11:28:06.174Z,94769.00
2023-04-26T11:29:06.151Z,94769.00
2023-04-26T11:30:06.114Z,94769.00
2023-04-26T11:31:06.364Z,94763.00
2023-04-26T11:32:06.149Z,94760.00
2023-04-26T11:33:06.103Z,94758.00
2023-04-26T11:34:06.103Z,94756.00
2023-04-26T11:35:06.097Z,94756.00
2023-04-26T11:36:06.096Z,94754.00
2023-04-26T11:37:06.056Z,94756.00
2023-04-26T11:38:06.054Z,94754.00
2023-04-26T11:39:06.049Z,94760.00
2023-04-26T11:40:06.058Z,94758.00
2023-04-26T11:41:06.048Z,94758.00
2023-04-26T11:42:06.033Z,94754.00
2023-04-26T11:43:06.028Z,94758.00
2023-04-26T11:44:06.038Z,94758.00
2023-04-26T11:45:06.008Z,94760.00